createdAt,value
2022-09-11T00:01:41.729Z,99966.00
2022-09-11T00:04:10.992Z,99963.80
2022-09-11T00:06:39.950Z,99963.20
2022-09-11T00:09:08.310Z,99964.00
2022-09-11T00:11:41.496Z,99962.60
2022-09-11T00:14:14.096Z,99957.00
2022-09-11T00:16:46.296Z,99958.00
2022-09-11T00:19:20.103Z,99956.20
2022-09-11T00:21:51.642Z,99954.20
2022-09-11T00:24:19.555Z,99951.80
2022-09-11T00:26:47.897Z,99947.60
2022-09-11T00:29:15.898Z,99950.20
2022-09-11T00:31:43.899Z,99949.20
2022-09-11T00:34:12.459Z,99946.60
2022-09-11T00:36:41.705Z,99944.40
2022-09-11T00:39:12.605Z,99942.40
2022-09-11T00:41:45.074Z,99939.80
2022-09-11T00:44:18.802Z,99937.00
2022-09-11T00:46:58.320Z,99930.80
2022-09-11T00:50:01.729Z,99936.80
2022-09-11T00:52:36.169Z,99928.40
2022-09-11T00:55:18.726Z,99928.20
2022-09-11T00:58:04.870Z,99924.40
2022-09-11T01:00:33.057Z,99926.20
2022-09-11T01:03:01.920Z,99925.40
2022-09-11T01:05:33.090Z,99920.20
2022-09-11T01:08:04.147Z,99922.20
2022-09-11T01:10:56.435Z,99921.80
2022-09-11T01:13:48.085Z,99921.00
2022-09-11T01:16:55.982Z,99919.80
2022-09-11T01:20:05.246Z,99919.60
2022-09-11T01:22:51.861Z,99911.80
2022-09-11T01:25:39.847Z,99915.40
2022-09-11T01:28:15.598Z,99911.40
2022-09-11T01:30:54.857Z,99910.00
2022-09-11T01:33:41.198Z,99904.60
2022-09-11T01:36:21.619Z,99901.00
2022-09-11T01:39:02.461Z,99906.60
2022-09-11T01:41:53.391Z,99900.80
2022-09-11T01:44:30.541Z,99900.20
2022-09-11T01:47:01.173Z,99895.40
2022-09-11T01:49:56.279Z,99895.60
2022-09-11T01:52:32.077Z,99895.60
2022-09-11T01:55:19.268Z,99893.00
2022-09-11T01:57:56.533Z,99894.40
2022-09-11T02:00:24.656Z,99892.60
2022-09-11T02:03:11.005Z,99896.20
2022-09-11T02:05:51.659Z,99898.40
2022-09-11T02:08:37.373Z,99896.60
2022-09-11T02:11:09.192Z,99895.40
2022-09-11T02:13:49.370Z,99890.20
2022-09-11T02:16:51.129Z,99894.40
2022-09-11T02:19:31.367Z,99896.00
2022-09-11T02:21:59.620Z,99889.00
2022-09-11T02:24:28.413Z,99890.20
2022-09-11T02:27:05.168Z,99893.80
2022-09-11T02:29:34.195Z,99890.00
2022-09-11T02:32:04.028Z,99890.80
2022-09-11T02:34:35.799Z,99891.00
2022-09-11T02:37:47.424Z,99886.60
2022-09-11T02:40:27.322Z,99884.20
2022-09-11T02:43:51.268Z,99885.00
2022-09-11T02:46:50.203Z,99884.40
2022-09-11T02:49:30.588Z,99882.40
2022-09-11T02:52:27.707Z,99882.40
2022-09-11T02:55:49.029Z,99882.20
2022-09-11T02:58:29.344Z,99881.00
2022-09-11T03:01:02.480Z,99880.80
2022-09-11T03:03:46.931Z,99876.80
2022-09-11T03:06:25.246Z,99874.00
2022-09-11T03:08:54.912Z,99873.20
2022-09-11T03:11:23.251Z,99868.40
2022-09-11T03:13:51.221Z,99870.60
2022-09-11T03:16:20.563Z,99865.80
2022-09-11T03:18:48.669Z,99868.60
2022-09-11T03:21:16.975Z,99867.40
2022-09-11T03:23:45.250Z,99867.40
2022-09-11T03:26:14.459Z,99870.00
2022-09-11T03:28:43.929Z,99864.20
2022-09-11T03:31:12.850Z,99859.40
2022-09-11T03:33:41.050Z,99855.40
2022-09-11T03:36:10.936Z,99861.00
2022-09-11T03:38:39.359Z,99859.40
2022-09-11T03:41:07.264Z,99858.80
2022-09-11T03:43:35.426Z,99864.60
2022-09-11T03:46:04.033Z,99863.20
2022-09-11T03:48:32.342Z,99860.00
2022-09-11T03:51:00.347Z,99863.20
2022-09-11T03:53:28.740Z,99865.20
2022-09-11T03:56:04.454Z,99860.20
2022-09-11T03:58:37.362Z,99856.80
2022-09-11T04:01:19.224Z,99858.20
2022-09-11T04:03:47.333Z,99858.00
2022-09-11T04:06:22.077Z,99855.20
2022-09-11T04:08:50.479Z,99856.20
2022-09-11T04:11:19.740Z,99857.60
2022-09-11T04:13:47.927Z,99861.80
2022-09-11T04:16:19.100Z,99858.80
2022-09-11T04:18:49.667Z,99858.20
2022-09-11T04:21:19.313Z,99860.00
2022-09-11T04:23:56.613Z,99860.60
2022-09-11T04:26:29.013Z,99861.20
2022-09-11T04:29:01.940Z,99856.00
2022-09-11T04:31:29.853Z,99858.80
2022-09-11T04:33:58.248Z,99859.60
2022-09-11T04:36:30.175Z,99858.80
2022-09-11T04:39:00.524Z,99862.60
2022-09-11T04:41:28.936Z,99859.80
2022-09-11T04:44:05.432Z,99856.20
2022-09-11T04:46:37.757Z,99856.20
2022-09-11T04:49:09.193Z,99850.00
2022-09-11T04:51:39.164Z,99849.40
2022-09-11T04:54:08.293Z,99847.40
2022-09-11T04:56:38.369Z,99848.00
2022-09-11T04:59:13.596Z,99844.00
2022-09-11T05:01:44.278Z,99846.20
2022-09-11T05:04:14.430Z,99842.60
2022-09-11T05:06:49.816Z,99841.00
2022-09-11T05:09:18.922Z,99844.80
2022-09-11T05:11:48.478Z,99845.40
2022-09-11T05:14:18.453Z,99840.20
2022-09-11T05:16:48.029Z,99837.60
2022-09-11T05:19:17.134Z,99833.20
2022-09-11T05:21:45.716Z,99835.00
2022-09-11T05:24:13.746Z,99835.20
2022-09-11T05:26:42.286Z,99833.40
2022-09-11T05:29:15.678Z,99836.20
2022-09-11T05:32:03.861Z,99832.60
2022-09-11T05:34:31.695Z,99835.00
2022-09-11T05:36:59.916Z,99834.20
2022-09-11T05:39:29.924Z,99834.80
2022-09-11T05:41:57.903Z,99836.80
2022-09-11T05:44:31.102Z,99837.80
2022-09-11T05:46:59.228Z,99840.20
2022-09-11T05:49:27.360Z,99837.20
2022-09-11T05:51:55.148Z,99835.40
2022-09-11T05:54:25.394Z,99835.00
2022-09-11T05:56:55.597Z,99836.80
2022-09-11T05:59:27.220Z,99837.60
2022-09-11T06:01:57.045Z,99839.60
2022-09-11T06:04:45.313Z,99835.20
2022-09-11T06:07:13.488Z,99835.80
2022-09-11T06:09:42.718Z,99835.40
2022-09-11T06:12:12.555Z,99834.80
2022-09-11T06:14:44.550Z,99841.80
2022-09-11T06:17:12.618Z,99841.40
2022-09-11T06:19:40.841Z,99839.00
2022-09-11T06:22:08.703Z,99840.00
2022-09-11T06:24:41.069Z,99846.00
2022-09-11T06:27:09.610Z,99845.60
2022-09-11T06:29:39.684Z,99846.40
2022-09-11T06:32:07.558Z,99843.60
2022-09-11T06:34:38.666Z,99838.40
2022-09-11T06:37:08.489Z,99835.80
2022-09-11T06:39:36.478Z,99841.80
2022-09-11T06:42:05.117Z,99841.20
2022-09-11T06:44:35.993Z,99840.60
2022-09-11T06:47:04.235Z,99842.00
2022-09-11T06:49:33.295Z,99839.20
2022-09-11T06:52:35.253Z,99840.00
2022-09-11T06:55:13.633Z,99844.80
2022-09-11T06:57:44.977Z,99844.80
2022-09-11T07:00:15.907Z,99843.20
2022-09-11T07:02:44.288Z,99845.40
2022-09-11T07:05:13.430Z,99847.40
2022-09-11T07:07:41.470Z,99843.80
2022-09-11T07:10:11.163Z,99842.20
2022-09-11T07:12:38.993Z,99844.60
2022-09-11T07:15:10.976Z,99843.20
2022-09-11T07:17:40.102Z,99840.00
2022-09-11T07:20:10.837Z,99842.00
2022-09-11T07:22:39.204Z,99838.80
2022-09-11T07:25:08.065Z,99839.20
2022-09-11T07:27:37.809Z,99840.20
2022-09-11T07:30:07.179Z,99841.40
2022-09-11T07:32:38.443Z,99839.40
2022-09-11T07:35:07.300Z,99840.80
2022-09-11T07:37:35.707Z,99839.40
2022-09-11T07:40:05.484Z,99835.00
2022-09-11T07:42:34.530Z,99835.20
2022-09-11T07:45:02.585Z,99836.80
2022-09-11T07:47:34.069Z,99838.20
2022-09-11T07:50:02.683Z,99837.40
2022-09-11T07:52:31.954Z,99835.00
2022-09-11T07:55:01.812Z,99836.20
2022-09-11T07:57:32.250Z,99834.00
2022-09-11T08:00:01.562Z,99835.20
2022-09-11T08:02:31.130Z,99842.60
2022-09-11T08:04:58.939Z,99839.40
2022-09-11T08:07:28.736Z,99836.00
2022-09-11T08:10:23.305Z,99839.80
2022-09-11T08:12:47.739Z,99839.80
2022-09-11T08:15:15.679Z,99841.80
2022-09-11T08:17:44.057Z,99836.60
2022-09-11T08:20:12.934Z,99837.80
2022-09-11T08:22:42.249Z,99835.20
2022-09-11T08:25:10.415Z,99832.40
2022-09-11T08:27:38.550Z,99838.60
2022-09-11T08:30:08.096Z,99838.00
2022-09-11T08:32:36.706Z,99844.80
2022-09-11T08:35:05.394Z,99848.20
2022-09-11T08:37:33.084Z,99853.00
2022-09-11T08:40:02.178Z,99845.20
2022-09-11T08:42:31.658Z,99841.00
2022-09-11T08:45:00.619Z,99844.60
2022-09-11T08:47:39.758Z,99843.60
2022-09-11T08:50:36.765Z,99844.80
2022-09-11T08:53:12.637Z,99843.60
2022-09-11T08:56:10.753Z,99846.20
2022-09-11T08:59:05.190Z,99843.40
2022-09-11T09:01:46.847Z,99847.00
2022-09-11T09:04:51.100Z,99846.80
2022-09-11T09:08:07.414Z,99849.20
2022-09-11T09:10:56.624Z,99851.80
2022-09-11T09:13:46.264Z,99848.00
2022-09-11T09:16:45.519Z,99848.80
2022-09-11T09:19:23.533Z,99851.00
2022-09-11T09:22:13.902Z,99854.20
2022-09-11T09:24:50.234Z,99856.80
2022-09-11T09:27:25.877Z,99864.20
2022-09-11T09:29:55.913Z,99867.40
2022-09-11T09:32:32.365Z,99861.80
2022-09-11T09:35:16.819Z,99863.60
2022-09-11T09:37:45.954Z,99866.00
2022-09-11T09:40:18.847Z,99871.00
2022-09-11T09:43:14.509Z,99875.00
2022-09-11T09:45:59.437Z,99871.60
2022-09-11T09:48:31.076Z,99872.80
2022-09-11T09:50:59.086Z,99877.40
2022-09-11T09:53:55.307Z,99872.20
2022-09-11T09:56:24.931Z,99878.40
2022-09-11T09:59:23.937Z,99876.80
2022-09-11T10:01:54.034Z,99877.60
2022-09-11T10:04:27.043Z,99875.60
2022-09-11T10:07:15.277Z,99876.20
2022-09-11T10:09:55.393Z,99876.40
2022-09-11T10:12:27.882Z,99874.00
2022-09-11T10:14:59.646Z,99873.60
2022-09-11T10:17:33.420Z,99876.20
2022-09-11T10:20:18.642Z,99879.20
2022-09-11T10:22:47.107Z,99885.60
2022-09-11T10:25:27.454Z,99887.40
2022-09-11T10:28:09.277Z,99887.60
2022-09-11T10:30:40.503Z,99882.20
2022-09-11T10:33:38.392Z,99879.00
2022-09-11T10:36:10.146Z,99878.80
2022-09-11T10:38:48.518Z,99872.40
2022-09-11T10:41:21.652Z,99871.00
2022-09-11T10:44:00.261Z,99865.40
2022-09-11T10:46:40.257Z,99863.60
2022-09-11T10:49:18.623Z,99861.40
2022-09-11T10:52:10.683Z,99860.00
2022-09-11T10:55:03.700Z,99857.00
2022-09-11T10:57:53.911Z,99853.60
2022-09-11T11:00:30.975Z,99852.00
2022-09-11T11:03:00.393Z,99853.80
2022-09-11T11:06:19.491Z,99847.00
2022-09-11T11:09:31.938Z,99843.20
2022-09-11T11:12:18.242Z,99843.60
2022-09-11T11:15:06.007Z,99844.40
2022-09-11T11:18:16.084Z,99836.00
2022-09-11T11:21:18.536Z,99837.20
2022-09-11T11:24:22.027Z,99841.00
2022-09-11T11:27:16.102Z,99841.20
2022-09-11T11:30:11.045Z,99846.00
2022-09-11T11:32:48.309Z,99842.20
2022-09-11T11:35:24.192Z,99841.00
2022-09-11T11:38:07.473Z,99834.80
2022-09-11T11:40:53.514Z,99831.40
2022-09-11T11:43:28.338Z,99830.40
2022-09-11T11:46:26.470Z,99834.40
2022-09-11T11:49:23.123Z,99839.80
2022-09-11T11:52:10.171Z,99842.60
2022-09-11T11:54:46.704Z,99840.40
2022-09-11T11:57:19.991Z,99840.40
2022-09-11T12:00:03.939Z,99842.40
2022-09-11T12:02:58.078Z,99837.40
2022-09-11T12:05:30.934Z,99827.00
2022-09-11T12:07:59.055Z,99834.60
2022-09-11T12:10:36.078Z,99834.00
2022-09-11T12:13:15.657Z,99836.00
2022-09-11T12:16:21.304Z,99831.80
2022-09-11T12:19:13.525Z,99827.40
2022-09-11T12:21:54.692Z,99832.20
2022-09-11T12:24:52.635Z,99832.60
2022-09-11T12:27:34.627Z,99831.20
2022-09-11T12:30:18.030Z,99840.60
2022-09-11T12:32:46.050Z,99837.60
2022-09-11T12:35:22.717Z,99831.00
2022-09-11T12:38:25.915Z,99831.00
2022-09-11T12:41:02.029Z,99830.60
2022-09-11T12:43:35.633Z,99832.40
2022-09-11T12:46:12.125Z,99830.40
2022-09-11T12:49:00.276Z,99829.00
2022-09-11T12:51:42.940Z,99833.40
2022-09-11T12:54:22.365Z,99831.40
2022-09-11T12:57:21.701Z,99831.00
2022-09-11T12:59:59.504Z,99825.00
2022-09-11T13:02:46.851Z,99827.40
2022-09-11T13:05:38.109Z,99823.80
2022-09-11T13:08:21.284Z,99830.00
2022-09-11T13:10:49.147Z,99819.60
2022-09-11T13:13:37.491Z,99821.80
2022-09-11T13:16:18.497Z,99818.40
2022-09-11T13:18:46.443Z,99815.00
2022-09-11T13:21:22.014Z,99820.40
2022-09-11T13:23:52.257Z,99818.80
2022-09-11T13:26:31.585Z,99820.60
2022-09-11T13:29:01.500Z,99817.40
2022-09-11T13:31:35.830Z,99815.20
2022-09-11T13:34:12.783Z,99818.60
2022-09-11T13:36:40.995Z,99822.40
2022-09-11T13:39:10.283Z,99820.00
2022-09-11T13:41:43.835Z,99813.60
2022-09-11T13:44:33.047Z,99823.40
2022-09-11T13:47:01.133Z,99822.40
2022-09-11T13:49:37.249Z,99817.40
2022-09-11T13:52:07.106Z,99822.20
2022-09-11T13:54:45.614Z,99822.80
2022-09-11T13:57:19.013Z,99824.80
2022-09-11T13:59:57.744Z,99822.00
2022-09-11T14:02:35.053Z,99825.00
2022-09-11T14:05:08.804Z,99814.80
2022-09-11T14:07:56.619Z,99824.00
2022-09-11T14:10:49.791Z,99821.60
2022-09-11T14:13:33.026Z,99824.60
2022-09-11T14:16:13.476Z,99826.80
2022-09-11T14:18:53.225Z,99833.20
2022-09-11T14:21:45.746Z,99833.20
2022-09-11T14:24:32.773Z,99833.60
2022-09-11T14:27:25.221Z,99842.80
2022-09-11T14:29:55.591Z,99839.80
2022-09-11T14:32:34.397Z,99839.40
2022-09-11T14:35:03.360Z,99825.20
2022-09-11T14:37:35.024Z,99840.80
2022-09-11T14:40:14.747Z,99847.60
2022-09-11T14:42:43.803Z,99843.00
2022-09-11T14:45:24.015Z,99843.80
2022-09-11T14:47:53.513Z,99837.20
2022-09-11T14:50:21.821Z,99837.60
2022-09-11T14:52:50.409Z,99841.20
2022-09-11T14:55:20.467Z,99839.60
2022-09-11T14:57:48.510Z,99838.40
2022-09-11T15:00:18.841Z,99842.40
2022-09-11T15:02:47.164Z,99841.40
2022-09-11T15:05:22.969Z,99844.60
2022-09-11T15:07:52.920Z,99845.40
2022-09-11T15:10:20.885Z,99845.60
2022-09-11T15:12:49.172Z,99847.60
2022-09-11T15:15:17.788Z,99848.40
2022-09-11T15:17:46.217Z,99854.80
2022-09-11T15:20:13.941Z,99855.60
2022-09-11T15:22:41.744Z,99855.60
2022-09-11T15:25:09.752Z,99857.00
2022-09-11T15:27:37.740Z,99852.80
2022-09-11T15:30:06.295Z,99852.60
2022-09-11T15:32:34.329Z,99859.20
2022-09-11T15:35:04.954Z,99860.20
2022-09-11T15:37:32.758Z,99863.20
2022-09-11T15:40:01.341Z,99871.00
2022-09-11T15:42:30.390Z,99873.20
2022-09-11T15:45:02.021Z,99879.40
2022-09-11T15:47:32.576Z,99886.80
2022-09-11T15:50:00.314Z,99884.40
2022-09-11T15:52:29.446Z,99885.60
2022-09-11T15:54:57.219Z,99881.80
2022-09-11T15:57:25.756Z,99892.20
2022-09-11T15:59:53.787Z,99891.40
2022-09-11T16:02:23.985Z,99900.00
2022-09-11T16:04:53.945Z,99901.00
2022-09-11T16:07:22.852Z,99900.80
2022-09-11T16:09:51.460Z,99904.60
2022-09-11T16:12:19.712Z,99907.60
2022-09-11T16:14:48.329Z,99912.80
2022-09-11T16:17:20.665Z,99916.60
2022-09-11T16:19:48.566Z,99917.80
2022-09-11T16:22:16.413Z,99917.00
2022-09-11T16:24:44.368Z,99921.60
2022-09-11T16:27:12.335Z,99917.80
2022-09-11T16:32:29.170Z,99926.20
2022-09-11T16:34:59.520Z,99924.60
2022-09-11T16:37:28.895Z,99929.80
2022-09-11T16:39:56.810Z,99936.00
2022-09-11T16:42:24.696Z,99940.80
2022-09-11T16:44:53.733Z,99941.40
2022-09-11T16:47:22.740Z,99944.20
2022-09-11T16:50:06.442Z,99947.60
2022-09-11T16:52:35.510Z,99937.80
2022-09-11T16:55:07.359Z,99939.40
2022-09-11T16:57:35.518Z,99939.40
2022-09-11T17:00:06.091Z,99934.00
2022-09-11T17:02:37.224Z,99934.20
2022-09-11T17:05:07.766Z,99942.40
2022-09-11T17:07:36.102Z,99951.40
2022-09-11T17:10:04.492Z,99957.40
2022-09-11T17:12:32.441Z,99962.20
2022-09-11T17:15:00.223Z,99956.00
2022-09-11T17:17:28.130Z,99962.80
2022-09-11T17:19:56.668Z,99967.00
2022-09-11T17:22:24.352Z,99966.00
2022-09-11T17:24:52.123Z,99972.80
2022-09-11T17:27:19.923Z,99978.00
2022-09-11T17:29:48.378Z,99979.40
2022-09-11T17:32:29.104Z,99989.60
2022-09-11T17:34:58.743Z,99994.60
2022-09-11T17:37:30.807Z,99993.80
2022-09-11T17:39:58.914Z,99997.60
2022-09-11T17:42:27.401Z,100003.20
2022-09-11T17:44:56.317Z,100000.00
2022-09-11T17:47:24.751Z,99997.20
2022-09-11T17:49:52.563Z,100006.00
2022-09-11T17:52:20.418Z,100006.80
2022-09-11T17:54:49.046Z,100003.80
2022-09-11T17:57:17.034Z,100004.40
2022-09-11T17:59:47.285Z,100002.00
2022-09-11T18:02:15.109Z,99995.80
2022-09-11T18:04:44.302Z,99992.20
2022-09-11T18:07:12.506Z,99995.80
2022-09-11T18:09:40.481Z,99995.20
2022-09-11T18:12:08.607Z,99997.20
2022-09-11T18:14:42.996Z,99999.40
2022-09-11T18:17:11.418Z,100000.40
2022-09-11T18:19:39.290Z,99997.00
2022-09-11T18:22:07.160Z,100003.40
2022-09-11T18:24:35.064Z,99995.00
2022-09-11T18:27:02.953Z,100000.80
2022-09-11T18:29:31.354Z,100001.80
2022-09-11T18:32:00.248Z,100000.40
2022-09-11T18:34:29.287Z,100003.00
2022-09-11T18:36:57.137Z,100000.60
2022-09-11T18:39:24.988Z,100007.60
2022-09-11T18:41:53.747Z,100007.00
2022-09-11T18:44:24.897Z,100006.80
2022-09-11T18:46:54.507Z,100004.20
2022-09-11T18:49:23.094Z,99997.40
2022-09-11T18:51:52.049Z,100006.40
2022-09-11T18:54:21.285Z,100002.60
2022-09-11T18:56:51.071Z,100007.80
2022-09-11T18:59:20.214Z,100010.60
2022-09-11T19:01:48.417Z,100010.40
2022-09-11T19:04:16.914Z,100011.60
2022-09-11T19:06:46.372Z,100006.00
2022-09-11T19:09:14.848Z,100005.20
2022-09-11T19:11:43.378Z,100004.60
2022-09-11T19:14:13.137Z,100001.60
2022-09-11T19:16:41.287Z,99998.40
2022-09-11T19:19:09.207Z,99993.20
2022-09-11T19:21:38.445Z,99997.40
2022-09-11T19:24:07.607Z,99999.00
2022-09-11T19:26:39.841Z,100002.00
2022-09-11T19:29:08.889Z,99999.20
2022-09-11T19:31:39.327Z,100000.80
2022-09-11T19:34:12.002Z,100000.40
2022-09-11T19:36:41.171Z,100002.60
2022-09-11T19:39:11.327Z,100005.40
2022-09-11T19:41:40.141Z,100008.20
2022-09-11T19:44:12.350Z,100007.20
2022-09-11T19:46:41.718Z,100004.00
2022-09-11T19:49:11.169Z,100004.60
2022-09-11T19:51:42.591Z,100002.60
2022-09-11T19:54:12.529Z,100008.00
2022-09-11T19:56:41.073Z,100005.00
2022-09-11T19:59:09.073Z,100003.40
2022-09-11T20:01:37.285Z,100000.20
2022-09-11T20:04:06.149Z,99997.40
2022-09-11T20:06:35.581Z,99996.20
2022-09-11T20:11:54.008Z,99994.60
2022-09-11T20:14:21.797Z,99996.20
2022-09-11T20:16:49.770Z,99998.00
2022-09-11T20:19:20.631Z,100001.60
2022-09-11T20:21:48.469Z,100001.00
2022-09-11T20:24:16.431Z,100001.00
2022-09-11T20:26:44.313Z,100000.80
2022-09-11T20:29:15.046Z,100004.20
2022-09-11T20:31:48.740Z,100000.80
2022-09-11T20:34:19.285Z,100002.00
2022-09-11T20:36:47.616Z,99996.20
2022-09-11T20:39:16.201Z,100003.40
2022-09-11T20:41:44.685Z,100006.40
2022-09-11T20:44:12.524Z,100006.20
2022-09-11T20:46:41.167Z,100000.00
2022-09-11T20:49:10.997Z,100007.80
2022-09-11T20:51:39.322Z,100005.20
2022-09-11T20:54:07.547Z,100005.20
2022-09-11T20:56:35.846Z,100002.40
2022-09-11T20:59:04.140Z,100004.60
2022-09-11T21:01:33.369Z,100003.60
2022-09-11T21:04:04.532Z,100005.40
2022-09-11T21:06:34.858Z,100003.00
2022-09-11T21:09:11.625Z,100004.40
2022-09-11T21:11:43.799Z,100011.60
2022-09-11T21:14:13.893Z,100009.80
2022-09-11T21:16:42.351Z,100011.40
2022-09-11T21:19:10.205Z,100004.60
2022-09-11T21:21:38.409Z,100006.20
2022-09-11T21:24:12.425Z,100006.60
2022-09-11T21:26:40.761Z,100006.40
2022-09-11T21:29:12.913Z,100009.00
2022-09-11T21:31:42.826Z,100006.60
2022-09-11T21:34:11.412Z,100008.60
2022-09-11T21:36:39.207Z,100010.80
2022-09-11T21:39:07.032Z,100018.20
2022-09-11T21:41:34.984Z,100015.40
2022-09-11T21:44:03.635Z,100021.20
2022-09-11T21:46:31.390Z,100025.60
2022-09-11T21:48:59.330Z,100017.60
2022-09-11T21:51:27.869Z,100014.80
2022-09-11T21:53:59.154Z,100022.20
2022-09-11T21:56:31.069Z,100016.20
2022-09-11T21:59:00.355Z,100016.40
2022-09-11T22:01:28.856Z,100017.80
2022-09-11T22:03:58.660Z,100017.80
2022-09-11T22:06:27.296Z,100015.40
2022-09-11T22:08:56.338Z,100015.20
2022-09-11T22:11:25.880Z,100022.40
2022-09-11T22:13:54.946Z,100022.40
2022-09-11T22:16:23.611Z,100022.00
2022-09-11T22:18:54.246Z,100024.00
2022-09-11T22:21:22.432Z,100026.60
2022-09-11T22:23:50.706Z,100029.00
2022-09-11T22:26:20.998Z,100030.60
2022-09-11T22:28:48.855Z,100026.40
2022-09-11T22:31:20.367Z,100027.80
2022-09-11T22:33:48.319Z,100027.00
2022-09-11T22:36:20.494Z,100026.00
2022-09-11T22:38:49.401Z,100033.60
2022-09-11T22:41:17.737Z,100033.60
2022-09-11T22:43:47.634Z,100032.80
2022-09-11T22:46:17.357Z,100028.00
2022-09-11T22:48:45.116Z,100033.60
2022-09-11T22:51:13.169Z,100028.60
2022-09-11T22:53:41.345Z,100027.80
2022-09-11T22:56:10.422Z,100034.20
2022-09-11T22:58:38.585Z,100036.60
2022-09-11T23:01:10.420Z,100030.80
2022-09-11T23:03:38.488Z,100029.80
2022-09-11T23:06:25.151Z,100032.80
2022-09-11T23:08:52.974Z,100038.40
2022-09-11T23:11:21.328Z,100038.60
2022-09-11T23:13:50.707Z,100043.60
2022-09-11T23:16:22.723Z,100036.20
2022-09-11T23:19:02.783Z,100033.80
2022-09-11T23:21:33.108Z,100033.60
2022-09-11T23:24:02.046Z,100032.40
2022-09-11T23:26:31.139Z,100034.60
2022-09-11T23:28:59.467Z,100033.60
2022-09-11T23:31:34.115Z,100034.80
2022-09-11T23:34:08.130Z,100033.20
2022-09-11T23:36:36.422Z,100033.00
2022-09-11T23:39:04.690Z,100029.60
2022-09-11T23:41:32.733Z,100037.00
2022-09-11T23:44:01.282Z,100032.60
2022-09-11T23:46:29.227Z,100028.60
2022-09-11T23:48:57.390Z,100028.20
2022-09-11T23:51:26.889Z,100025.60
2022-09-11T23:53:54.857Z,100026.40
2022-09-11T23:56:22.885Z,100025.60
2022-09-11T23:58:51.722Z,100032.40
